Time;durP1;ratioP1;P1;durP2;ratioP2;P2;SDS_P1;SDS_P2;PMS_P1;PMS_P2;Temp;Humidity;BMP_temperature;BMP_pressure;BME280_temperature;BME280_humidity;BME280_pressure;Samples;Min_cycle;Max_cycle;Signal;HPM_P1;HPM_P2
2022/01/22 00:01:50;;;;;;;1.52;0.80;;;2.80;99.90;;;;;;5032110;28;20104;-92
2022/01/22 00:04:18;;;;;;;0.95;0.90;;;2.80;99.90;;;;;;5032153;28;20141;-91
2022/01/22 00:06:44;;;;;;;1.10;1.10;;;2.80;99.90;;;;;;5032278;28;20081;-91
2022/01/22 00:09:11;;;;;;;0.40;0.40;;;2.80;99.90;;;;;;5032254;28;20069;-92
2022/01/22 00:11:41;;;;;;;0.70;0.70;;;2.90;99.90;;;;;;5032012;28;20114;-92
2022/01/22 00:14:23;;;;;;;0.68;0.68;;;3.00;99.90;;;;;;5031558;28;20130;-92
2022/01/22 00:16:57;;;;;;;0.90;0.90;;;3.00;99.90;;;;;;5031942;28;20100;-91
2022/01/22 00:19:25;;;;;;;0.38;0.38;;;3.10;99.90;;;;;;5032611;28;20054;-91
2022/01/22 00:21:53;;;;;;;0.60;0.60;;;3.20;99.90;;;;;;5031890;28;20058;-92
2022/01/22 00:24:20;;;;;;;0.68;0.68;;;3.20;99.90;;;;;;5031655;28;20053;-92
2022/01/22 00:26:47;;;;;;;0.80;0.80;;;3.20;99.90;;;;;;5031914;28;20073;-92
2022/01/22 00:29:16;;;;;;;0.63;0.63;;;3.20;99.90;;;;;;5032205;28;20077;-91
2022/01/22 00:31:44;;;;;;;1.00;1.00;;;3.30;99.90;;;;;;5030944;28;20068;-91
2022/01/22 00:34:10;;;;;;;1.42;1.42;;;3.30;99.90;;;;;;5030852;28;20050;-92
2022/01/22 00:36:38;;;;;;;1.02;0.98;;;3.20;99.90;;;;;;5031612;28;20132;-91
2022/01/22 00:39:06;;;;;;;3.95;0.52;;;3.30;99.90;;;;;;5031544;28;20112;-91
2022/01/22 00:41:33;;;;;;;0.60;0.60;;;3.20;99.90;;;;;;5030968;28;20503;-91
2022/01/22 00:44:00;;;;;;;1.15;1.15;;;3.20;99.90;;;;;;5030490;28;20144;-91
2022/01/22 00:46:27;;;;;;;1.65;1.55;;;3.20;99.90;;;;;;5030649;28;20046;-91
2022/01/22 00:48:54;;;;;;;1.00;1.00;;;3.20;99.90;;;;;;5031640;28;20108;-92
2022/01/22 00:51:21;;;;;;;0.80;0.80;;;3.20;99.90;;;;;;5030826;28;20110;-91
2022/01/22 00:53:48;;;;;;;0.90;0.90;;;3.20;99.90;;;;;;5031252;28;20439;-92
2022/01/22 00:56:16;;;;;;;0.75;0.75;;;3.30;99.90;;;;;;5014915;28;20073;-91
2022/01/22 00:58:42;;;;;;;0.80;0.50;;;3.30;99.90;;;;;;5030267;28;20058;-91
2022/01/22 01:01:09;;;;;;;0.60;0.60;;;3.30;99.90;;;;;;5030942;28;20046;-90
2022/01/22 01:03:36;;;;;;;0.80;0.60;;;3.40;99.90;;;;;;5029906;28;20557;-91
2022/01/22 01:06:05;;;;;;;0.80;0.70;;;3.30;99.90;;;;;;5030858;28;20050;-91
2022/01/22 01:08:34;;;;;;;1.80;1.13;;;3.40;99.90;;;;;;5030198;28;20050;-90
2022/01/22 01:11:02;;;;;;;0.85;0.85;;;3.40;99.90;;;;;;5029889;28;20046;-91
2022/01/22 01:13:33;;;;;;;0.70;0.70;;;3.40;99.90;;;;;;5030120;28;20132;-89
2022/01/22 01:16:14;;;;;;;0.60;0.60;;;3.40;99.90;;;;;;5031282;28;20074;-91
2022/01/22 01:32:48;;;;;;;0.80;0.80;;;3.50;99.90;;;;;;5015023;28;20069;-90
2022/01/22 01:35:14;;;;;;;1.05;1.00;;;3.50;99.90;;;;;;5030062;28;20060;-91
2022/01/22 01:37:42;;;;;;;0.63;0.63;;;3.50;99.90;;;;;;5029955;28;20085;-90
2022/01/22 01:40:11;;;;;;;0.95;0.50;;;3.50;99.90;;;;;;5029137;28;20127;-90
2022/01/22 01:42:48;;;;;;;0.30;0.30;;;3.60;99.90;;;;;;5029754;28;20140;-89
2022/01/22 01:45:15;;;;;;;0.50;0.50;;;3.60;99.90;;;;;;5029731;28;20050;-90
2022/01/22 01:47:45;;;;;;;0.85;0.60;;;3.70;99.90;;;;;;5029601;28;20064;-90
2022/01/22 01:50:12;;;;;;;0.40;0.40;;;3.70;99.90;;;;;;5030520;28;20085;-90
2022/01/22 01:55:18;;;;;;;0.50;0.50;;;3.70;99.90;;;;;;5013739;28;20113;-90
2022/01/22 01:57:46;;;;;;;1.83;0.45;;;3.70;99.90;;;;;;5029503;28;20136;-90
2022/01/22 02:00:20;;;;;;;0.30;0.30;;;3.70;99.90;;;;;;5029273;28;20203;-90
2022/01/22 02:02:48;;;;;;;0.40;0.40;;;3.70;99.90;;;;;;5029394;28;20049;-90
2022/01/22 02:05:18;;;;;;;0.47;0.47;;;3.70;99.90;;;;;;5029226;28;20056;-89
2022/01/22 02:07:45;;;;;;;0.70;0.70;;;3.80;99.90;;;;;;5029382;28;20494;-90
2022/01/22 02:10:19;;;;;;;0.40;0.40;;;3.80;99.90;;;;;;5029613;28;20145;-89
2022/01/22 02:23:46;;;;;;;0.60;0.60;;;4.00;99.90;;;;;;5014189;28;20077;-90
2022/01/22 02:26:14;;;;;;;0.60;0.60;;;4.00;99.90;;;;;;5029290;28;20141;-89
2022/01/22 02:28:46;;;;;;;1.60;0.60;;;4.10;99.90;;;;;;5029105;28;20073;-89
2022/01/22 02:31:24;;;;;;;0.50;0.50;;;4.10;99.90;;;;;;5029396;28;20060;-89
2022/01/22 02:36:42;;;;;;;0.57;0.57;;;4.10;99.90;;;;;;5013049;28;20137;-88
2022/01/22 02:39:17;;;;;;;0.73;0.73;;;4.10;99.90;;;;;;5028315;28;20391;-88
2022/01/22 02:41:47;;;;;;;0.60;0.60;;;4.00;99.90;;;;;;5029143;28;20056;-88
2022/01/22 02:44:35;;;;;;;2.30;0.65;;;4.10;99.90;;;;;;5028853;28;20077;-93
2022/01/22 02:47:08;;;;;;;0.60;0.60;;;4.10;99.90;;;;;;5028671;28;20046;-88
2022/01/22 02:49:35;;;;;;;1.50;0.70;;;4.20;99.90;;;;;;5028911;28;20132;-89
2022/01/22 02:52:05;;;;;;;0.60;0.60;;;4.20;99.90;;;;;;5028752;28;20073;-88
2022/01/22 02:54:32;;;;;;;1.25;0.70;;;4.20;99.90;;;;;;5028591;28;20057;-88
2022/01/22 02:56:58;;;;;;;0.70;0.70;;;4.20;99.90;;;;;;5028578;28;20050;-88
2022/01/22 02:59:25;;;;;;;0.73;0.73;;;4.20;99.90;;;;;;5028683;28;20057;-89
2022/01/22 03:01:53;;;;;;;0.70;0.70;;;4.20;99.90;;;;;;5028552;28;20144;-88
2022/01/22 03:04:20;;;;;;;0.95;0.70;;;4.20;99.90;;;;;;5028416;28;20058;-88
2022/01/22 03:06:48;;;;;;;1.23;0.95;;;4.20;99.90;;;;;;5028331;28;20141;-88
2022/01/22 03:09:17;;;;;;;0.55;0.55;;;4.20;99.90;;;;;;5028780;28;20498;-88
2022/01/22 03:12:12;;;;;;;0.63;0.63;;;4.20;99.90;;;;;;5028429;28;20477;-88
2022/01/22 03:27:53;;;;;;;1.27;0.65;;;4.10;99.90;;;;;;5015777;28;20406;-88
2022/01/22 03:30:20;;;;;;;0.68;0.40;;;4.10;99.90;;;;;;5031979;28;20133;-88
2022/01/22 03:32:51;;;;;;;0.40;0.40;;;4.10;99.90;;;;;;5031823;28;20402;-88
2022/01/22 03:37:51;;;;;;;0.45;0.38;;;4.20;99.90;;;;;;5016306;28;20142;-87
2022/01/22 03:40:21;;;;;;;;;;;4.20;99.90;;;;;;5031528;28;20429;-89
2022/01/22 03:42:49;;;;;;;0.30;0.30;;;4.20;99.90;;;;;;5015104;28;20386;-88
2022/01/22 03:45:17;;;;;;;0.25;0.25;;;4.20;99.90;;;;;;5031589;28;20088;-88
2022/01/22 03:47:44;;;;;;;0.30;0.30;;;4.20;99.90;;;;;;5031462;28;20479;-87
2022/01/22 03:50:13;;;;;;;1.70;0.75;;;4.20;99.90;;;;;;5032044;28;20046;-88
2022/01/22 03:52:41;;;;;;;0.47;0.32;;;4.20;99.90;;;;;;5031576;28;20053;-88
2022/01/22 03:55:19;;;;;;;0.47;0.20;;;4.30;99.90;;;;;;5031587;28;20125;-88
2022/01/22 03:57:46;;;;;;;0.20;0.20;;;4.30;99.90;;;;;;5015823;28;20050;-88
2022/01/22 04:00:13;;;;;;;0.40;0.20;;;4.30;99.90;;;;;;5016098;28;20048;-87
2022/01/22 04:03:25;;;;;;;3.30;0.40;;;4.30;99.90;;;;;;5031360;28;20056;-88
2022/01/22 04:06:02;;;;;;;1.23;0.30;;;4.30;99.90;;;;;;5015680;28;20136;-88
2022/01/22 04:08:28;;;;;;;2.42;0.25;;;4.30;99.90;;;;;;5016063;28;20060;-88
2022/01/22 04:10:55;;;;;;;0.20;0.20;;;4.40;99.90;;;;;;5031113;28;20508;-88
2022/01/22 04:13:29;;;;;;;1.23;0.30;;;4.30;99.90;;;;;;5031120;28;20050;-88
2022/01/22 04:15:56;;;;;;;0.40;0.20;;;4.30;99.90;;;;;;5030939;28;20405;-88
2022/01/22 04:26:54;;;;;;;0.17;0.17;;;4.20;99.90;;;;;;5015636;28;20467;-87
2022/01/22 04:29:23;;;;;;;0.20;0.20;;;4.30;99.90;;;;;;5031159;28;20060;-88
2022/01/22 04:31:50;;;;;;;0.43;0.43;;;4.30;99.90;;;;;;5030933;28;20417;-88
2022/01/22 04:34:17;;;;;;;0.10;0.10;;;4.20;99.90;;;;;;5015376;28;20417;-88
2022/01/22 04:36:43;;;;;;;0.80;0.30;;;4.20;99.90;;;;;;5015369;28;20042;-88
2022/01/22 04:39:11;;;;;;;0.20;0.20;;;4.30;99.90;;;;;;5029837;28;20057;-87
2022/01/22 04:41:38;;;;;;;17.42;1.55;;;4.20;99.90;;;;;;5013650;28;20042;-88
2022/01/22 04:44:06;;;;;;;0.10;0.10;;;4.20;99.90;;;;;;5030405;28;20054;-88
2022/01/22 04:46:50;;;;;;;0.20;0.20;;;4.30;99.90;;;;;;5030354;28;20133;-88
2022/01/22 04:57:21;;;;;;;0.52;0.30;;;4.20;99.90;;;;;;5015358;28;20046;-89
2022/01/22 04:59:48;;;;;;;0.17;0.17;;;4.20;99.90;;;;;;5030408;28;20054;-88
2022/01/22 05:02:16;;;;;;;2.55;0.30;;;4.20;99.90;;;;;;5015029;28;20080;-88
2022/01/22 05:04:42;;;;;;;0.10;0.10;;;4.10;99.90;;;;;;5030011;28;20116;-89
2022/01/22 05:07:10;;;;;;;0.17;0.17;;;4.20;99.90;;;;;;5014997;28;20046;-88
2022/01/22 05:09:36;;;;;;;0.30;0.30;;;4.20;99.90;;;;;;5030517;28;20064;-88
2022/01/22 05:12:07;;;;;;;0.32;0.20;;;4.20;99.90;;;;;;5030369;28;20042;-88
2022/01/22 05:14:34;;;;;;;2.20;0.17;;;4.20;99.90;;;;;;5029630;28;20099;-88
2022/01/22 05:17:05;;;;;;;0.15;0.15;;;4.20;99.90;;;;;;5029945;28;20546;-88
2022/01/22 05:22:57;;;;;;;0.40;0.22;;;4.20;99.90;;;;;;5014853;28;20133;-89
2022/01/22 05:25:02;;;;;;;2.20;0.20;;;4.20;99.90;;;;;;5006807;28;20570;-88
2022/01/22 05:27:36;;;;;;;0.10;0.10;;;4.20;99.90;;;;;;5030049;28;20108;-88
2022/01/22 05:30:47;;;;;;;0.10;0.10;;;4.20;99.90;;;;;;5030132;28;20235;-88
2022/01/22 05:38:35;;;;;;;6.57;0.40;;;4.30;99.90;;;;;;5014053;28;20050;-88
2022/01/22 05:41:02;;;;;;;0.10;0.10;;;4.30;99.90;;;;;;5029450;28;20132;-89
2022/01/22 05:43:29;;;;;;;2.90;0.30;;;4.40;99.90;;;;;;5013090;28;20054;-88
2022/01/22 05:45:56;;;;;;;10.77;1.42;;;4.30;99.90;;;;;;5013695;28;20081;-88
2022/01/22 05:48:23;;;;;;;0.60;0.28;;;4.30;99.90;;;;;;5029159;28;20133;-88
2022/01/22 05:51:00;;;;;;;4.47;0.65;;;4.40;99.90;;;;;;5028629;28;20049;-88
2022/01/22 05:53:39;;;;;;;0.17;0.17;;;4.40;99.90;;;;;;5029351;28;20056;-89
2022/01/22 06:01:22;;;;;;;0.38;0.38;;;4.50;99.90;;;;;;5014040;28;20124;-88
2022/01/22 06:03:49;;;;;;;0.10;0.10;;;4.40;99.90;;;;;;5028832;28;20427;-88
2022/01/22 06:06:16;;;;;;;0.85;0.30;;;4.50;99.90;;;;;;5013786;28;20049;-88
2022/01/22 06:08:49;;;;;;;0.25;0.20;;;4.50;99.90;;;;;;5029045;28;20064;-88
2022/01/22 06:11:22;;;;;;;0.22;0.10;;;4.50;99.90;;;;;;5029156;28;20058;-88
2022/01/22 06:13:49;;;;;;;0.10;0.10;;;4.50;99.90;;;;;;5013631;28;20132;-87
2022/01/22 06:16:19;;;;;;;0.38;0.38;;;4.50;99.90;;;;;;5028983;28;20050;-88
2022/01/22 06:18:46;;;;;;;0.20;0.20;;;4.50;99.90;;;;;;5028589;28;20108;-88
2022/01/22 06:21:13;;;;;;;0.70;0.70;;;4.50;99.90;;;;;;5028909;28;20142;-88
2022/01/22 06:23:41;;;;;;;0.43;0.43;;;4.40;99.90;;;;;;5028469;28;20088;-88
2022/01/22 06:26:08;;;;;;;0.43;0.20;;;4.40;99.90;;;;;;5028917;28;20053;-89
2022/01/22 06:28:36;;;;;;;0.65;0.20;;;4.50;99.90;;;;;;5028926;28;20046;-88
2022/01/22 06:31:03;;;;;;;0.10;0.10;;;4.50;99.90;;;;;;5011328;28;20064;-88
2022/01/22 06:33:30;;;;;;;0.43;0.20;;;4.50;99.90;;;;;;5013358;28;20052;-88
2022/01/22 06:35:57;;;;;;;0.65;0.25;;;4.50;99.90;;;;;;5028584;28;20050;-88
2022/01/22 06:38:24;;;;;;;0.20;0.10;;;4.50;99.90;;;;;;5028847;28;20129;-89
2022/01/22 06:43:36;;;;;;;0.20;0.20;;;4.50;99.90;;;;;;5013325;28;20512;-89
2022/01/22 06:46:03;;;;;;;0.15;0.10;;;4.50;99.90;;;;;;5028695;28;20116;-87
2022/01/22 06:48:30;;;;;;;0.10;0.10;;;4.50;99.90;;;;;;5013254;28;20046;-88
2022/01/22 06:50:58;;;;;;;0.15;0.15;;;4.50;99.90;;;;;;5028698;28;20505;-89
2022/01/22 06:53:26;;;;;;;0.13;0.13;;;4.50;99.90;;;;;;5028742;28;20077;-88
2022/01/22 06:56:00;;;;;;;1.55;0.20;;;4.60;99.90;;;;;;5028358;28;20042;-88
2022/01/22 06:58:27;;;;;;;0.30;0.30;;;4.60;99.90;;;;;;5028914;28;20056;-89
2022/01/22 07:00:54;;;;;;;2.00;1.90;;;4.50;99.90;;;;;;5030159;28;20165;-88
2022/01/22 07:03:21;;;;;;;1.20;1.10;;;4.50;99.90;;;;;;5032540;28;20053;-90
2022/01/22 07:05:48;;;;;;;0.35;0.35;;;4.60;99.90;;;;;;5032369;28;20140;-88
2022/01/22 07:08:19;;;;;;;0.40;0.40;;;4.50;99.90;;;;;;5032143;28;20092;-87
2022/01/22 07:10:46;;;;;;;1.00;0.73;;;4.60;99.90;;;;;;5032473;28;20049;-88
2022/01/22 07:13:13;;;;;;;0.30;0.30;;;4.60;99.90;;;;;;5032248;28;20141;-88
2022/01/22 07:15:40;;;;;;;0.60;0.60;;;4.60;99.90;;;;;;5016818;28;20050;-87
2022/01/22 07:18:07;;;;;;;1.02;0.50;;;4.60;99.90;;;;;;5032275;28;20053;-88
2022/01/22 07:20:39;;;;;;;2.05;0.50;;;4.60;99.90;;;;;;5032386;28;20403;-88
2022/01/22 07:23:19;;;;;;;0.55;0.55;;;4.60;99.90;;;;;;5016904;28;20064;-88
2022/01/22 07:25:46;;;;;;;0.20;0.20;;;4.60;99.90;;;;;;5032038;28;20140;-86
2022/01/22 07:28:13;;;;;;;0.22;0.22;;;4.60;99.90;;;;;;5032176;28;20129;-87
2022/01/22 07:30:40;;;;;;;0.30;0.30;;;4.70;99.90;;;;;;5032389;28;20050;-87
2022/01/22 07:33:07;;;;;;;0.57;0.50;;;4.70;99.90;;;;;;5032267;28;20049;-87
2022/01/22 07:35:34;;;;;;;0.20;0.20;;;4.70;99.90;;;;;;5031827;28;20092;-88
2022/01/22 07:38:02;;;;;;;0.80;0.80;;;4.80;99.90;;;;;;5032214;28;20046;-88
2022/01/22 07:40:29;;;;;;;0.40;0.40;;;4.80;99.90;;;;;;5015514;28;20062;-87
2022/01/22 07:42:57;;;;;;;0.60;0.60;;;4.80;99.90;;;;;;5031845;28;20053;-89
2022/01/22 07:45:24;;;;;;;2.47;0.50;;;4.80;99.90;;;;;;5031924;28;20046;-88
2022/01/22 07:47:51;;;;;;;4.72;0.95;;;4.80;99.90;;;;;;5031815;28;20046;-88
2022/01/22 07:50:18;;;;;;;0.68;0.68;;;4.80;99.90;;;;;;5031544;28;20061;-88
2022/01/22 07:52:45;;;;;;;2.60;0.60;;;4.80;99.90;;;;;;5031840;28;20045;-88
2022/01/22 07:55:12;;;;;;;6.82;2.17;;;4.80;99.90;;;;;;5031560;28;20054;-87
2022/01/22 07:57:38;;;;;;;6.00;1.90;;;4.70;99.90;;;;;;5016187;28;20050;-88
2022/01/22 08:00:07;;;;;;;0.60;0.60;;;4.80;99.90;;;;;;5032006;28;20156;-88
2022/01/22 08:02:34;;;;;;;0.52;0.52;;;4.80;99.90;;;;;;5031842;28;20052;-88
2022/01/22 08:05:00;;;;;;;1.98;0.50;;;4.80;99.90;;;;;;5031483;28;20058;-88
2022/01/22 08:07:27;;;;;;;1.75;1.10;;;4.90;99.90;;;;;;5031606;28;20045;-88
2022/01/22 08:09:54;;;;;;;1.67;1.60;;;4.90;99.90;;;;;;5030350;28;20054;-88
2022/01/22 08:12:21;;;;;;;1.00;1.00;;;4.90;99.90;;;;;;5014330;28;20046;-87
2022/01/22 08:14:47;;;;;;;1.10;1.10;;;4.80;99.90;;;;;;5031279;28;20046;-88
2022/01/22 08:17:14;;;;;;;0.95;0.88;;;4.90;99.90;;;;;;5031604;28;20050;-88
2022/01/22 08:19:41;;;;;;;0.70;0.70;;;4.80;99.90;;;;;;5015974;28;20052;-88
2022/01/22 08:22:08;;;;;;;1.02;0.88;;;4.90;99.90;;;;;;5031517;28;20042;-88
2022/01/22 08:24:35;;;;;;;2.60;2.40;;;5.00;99.90;;;;;;5015723;28;20088;-87
2022/01/22 08:27:15;;;;;;;3.50;2.20;;;5.10;99.90;;;;;;5031140;28;20137;-87
2022/01/22 08:29:42;;;;;;;1.00;1.00;;;5.10;99.90;;;;;;5031364;28;20053;-88
2022/01/22 08:32:29;;;;;;;0.70;0.70;;;5.10;99.90;;;;;;5015667;28;20053;-88
2022/01/22 08:37:42;;;;;;;1.10;1.10;;;5.10;99.90;;;;;;5015563;28;20056;-88
2022/01/22 08:40:10;;;;;;;0.70;0.70;;;5.20;99.90;;;;;;5030568;28;20068;-88
2022/01/22 08:42:37;;;;;;;0.55;0.55;;;5.20;99.90;;;;;;5030837;28;20049;-88
2022/01/22 08:45:05;;;;;;;1.48;1.38;;;5.30;99.90;;;;;;5030636;28;20054;-88
2022/01/22 08:47:31;;;;;;;2.72;2.47;;;5.20;99.90;;;;;;5030732;28;20052;-88
2022/01/22 08:49:58;;;;;;;3.53;2.03;;;5.30;99.90;;;;;;5030562;28;20046;-88
2022/01/22 08:52:30;;;;;;;4.38;3.97;;;5.30;99.90;;;;;;5030625;28;20129;-87
2022/01/22 08:54:56;;;;;;;5.72;5.13;;;5.40;99.90;;;;;;5029583;28;20081;-88
2022/01/22 08:57:24;;;;;;;4.50;4.10;;;5.50;99.90;;;;;;5030403;28;20056;-87
2022/01/22 08:59:51;;;;;;;6.22;5.45;;;5.60;99.90;;;;;;5030259;28;20137;-87
2022/01/22 09:02:18;;;;;;;8.98;8.05;;;5.50;99.90;;;;;;5030104;28;20050;-87
2022/01/22 09:04:46;;;;;;;7.10;6.18;;;5.50;99.90;;;;;;5014810;28;20053;-88
2022/01/22 09:07:12;;;;;;;2.17;2.08;;;5.60;99.90;;;;;;5030303;28;20525;-88
2022/01/22 09:09:41;;;;;;;1.70;1.60;;;5.50;99.90;;;;;;5014570;28;20050;-87
2022/01/22 09:12:09;;;;;;;1.20;1.10;;;5.70;99.90;;;;;;5030077;28;20054;-87
2022/01/22 09:14:36;;;;;;;1.10;1.00;;;5.90;99.90;;;;;;5030342;28;20165;-88
2022/01/22 09:17:03;;;;;;;1.67;1.58;;;6.00;99.90;;;;;;5030326;28;20050;-88
2022/01/22 09:19:34;;;;;;;2.22;2.03;;;6.00;99.90;;;;;;5030342;28;20136;-88
2022/01/22 09:22:04;;;;;;;1.90;1.50;;;6.00;99.90;;;;;;5030417;28;20095;-88
2022/01/22 09:24:31;;;;;;;1.02;0.93;;;6.00;99.90;;;;;;5030034;28;20132;-88
2022/01/22 09:27:01;;;;;;;0.40;0.40;;;6.00;99.90;;;;;;5030243;28;20050;-88
2022/01/22 09:29:29;;;;;;;0.30;0.30;;;6.00;99.90;;;;;;5030017;28;20152;-88
2022/01/22 09:31:56;;;;;;;1.10;1.00;;;5.90;99.90;;;;;;5030068;28;20085;-87
2022/01/22 09:34:22;;;;;;;0.82;0.60;;;6.00;99.90;;;;;;5029671;28;20562;-87
2022/01/22 09:36:49;;;;;;;0.98;0.70;;;6.00;99.90;;;;;;5014451;28;20669;-88
2022/01/22 09:39:16;;;;;;;3.38;0.80;;;6.10;99.90;;;;;;5014488;28;20132;-88
2022/01/22 09:41:43;;;;;;;0.28;0.20;;;6.20;99.90;;;;;;5013446;28;20050;-88
2022/01/22 09:44:29;;;;;;;0.20;0.20;;;6.20;99.90;;;;;;5027205;28;20096;-87
2022/01/22 09:46:56;;;;;;;0.10;0.10;;;6.20;99.90;;;;;;5029550;28;20056;-87
2022/01/22 09:49:23;;;;;;;0.28;0.28;;;6.30;99.90;;;;;;5029983;28;20137;-88
2022/01/22 09:51:50;;;;;;;0.50;0.50;;;6.50;99.90;;;;;;5029678;28;20054;-88
2022/01/22 09:54:17;;;;;;;0.88;0.88;;;6.60;99.90;;;;;;5029759;28;20080;-87
2022/01/22 09:56:45;;;;;;;0.73;0.60;;;6.70;99.90;;;;;;5029288;28;20140;-88
2022/01/22 09:59:13;;;;;;;1.40;1.27;;;6.60;99.90;;;;;;5029332;28;20140;-88
2022/01/22 10:01:40;;;;;;;1.05;1.02;;;6.50;99.90;;;;;;5029437;28;20486;-88
2022/01/22 10:04:09;;;;;;;1.58;0.65;;;6.70;99.90;;;;;;5029567;28;20054;-87
2022/01/22 10:06:53;;;;;;;0.20;0.20;;;6.70;99.90;;;;;;5029246;28;20054;-88
2022/01/22 10:09:27;;;;;;;0.38;0.30;;;6.70;99.90;;;;;;5029274;28;20501;-88
2022/01/22 10:12:20;;;;;;;1.88;1.25;;;6.70;99.90;;;;;;5029370;28;20068;-87
2022/01/22 10:15:13;;;;;;;1.55;0.30;;;6.60;99.90;;;;;;5029231;28;20060;-88
2022/01/22 10:17:49;;;;;;;1.15;0.32;;;6.60;99.90;;;;;;5029171;28;20064;-88
2022/01/22 10:20:24;;;;;;;0.20;0.20;;;6.60;99.90;;;;;;5029198;28;20458;-88
2022/01/22 10:22:58;;;;;;;0.10;0.10;;;6.50;99.90;;;;;;5029257;28;20054;-88
2022/01/22 10:25:37;;;;;;;0.30;0.30;;;6.40;99.90;;;;;;5029024;28;20060;-88
2022/01/22 10:28:08;;;;;;;1.33;1.20;;;6.40;99.90;;;;;;5028303;28;20048;-88
2022/01/22 10:30:37;;;;;;;0.10;0.10;;;6.40;99.90;;;;;;5028720;28;20058;-87
2022/01/22 10:35:49;;;;;;;0.55;0.55;;;6.40;99.90;;;;;;5012982;28;20136;-89
2022/01/22 10:38:21;;;;;;;2.78;0.70;;;6.20;99.90;;;;;;5028598;28;20064;-87
2022/01/22 10:40:56;;;;;;;0.20;0.20;;;6.30;99.90;;;;;;5028494;28;20068;-88
2022/01/22 10:49:07;;;;;;;2.10;1.73;;;6.40;99.90;;;;;;5013130;28;20073;-87
2022/01/22 10:51:56;;;;;;;1.05;1.05;;;6.40;99.90;;;;;;5028768;28;20077;-88
2022/01/22 10:54:28;;;;;;;0.30;0.30;;;6.20;99.90;;;;;;5012301;28;20060;-88
2022/01/22 10:57:19;;;;;;;0.20;0.20;;;6.20;99.90;;;;;;5028727;28;20066;-87
2022/01/22 10:59:48;;;;;;;0.10;0.10;;;6.20;99.90;;;;;;5028370;28;20058;-87
2022/01/22 11:02:17;;;;;;;0.13;0.13;;;6.20;99.90;;;;;;5028649;28;20089;-87
2022/01/22 11:04:45;;;;;;;0.00;0.00;;;6.10;99.90;;;;;;5028201;28;20050;-87
2022/01/22 11:07:18;;;;;;;0.10;0.10;;;6.20;99.90;;;;;;5028573;28;20096;-87
2022/01/22 11:09:50;;;;;;;0.10;0.10;;;6.20;99.90;;;;;;5027715;28;20054;-87
2022/01/22 11:12:17;;;;;;;0.63;0.20;;;6.20;99.90;;;;;;5028543;28;20060;-87
2022/01/22 11:14:45;;;;;;;0.50;0.30;;;6.20;99.90;;;;;;5013215;28;20042;-87
2022/01/22 11:17:13;;;;;;;2.83;2.08;;;6.20;99.90;;;;;;5028510;28;20082;-87
2022/01/22 11:19:43;;;;;;;1.25;0.80;;;6.10;99.90;;;;;;5028427;28;20042;-87
2022/01/22 11:22:16;;;;;;;0.68;0.60;;;6.20;99.90;;;;;;5028515;28;20060;-87
2022/01/22 11:24:50;;;;;;;0.20;0.20;;;6.20;99.90;;;;;;5012789;28;20057;-87
2022/01/22 11:27:19;;;;;;;0.15;0.15;;;6.20;99.90;;;;;;5028667;28;20140;-87
2022/01/22 11:30:02;;;;;;;0.10;0.10;;;6.20;99.90;;;;;;5013110;28;20144;-87
2022/01/22 11:32:40;;;;;;;3.33;2.70;;;6.20;99.90;;;;;;5028067;28;20574;-87
2022/01/22 11:35:08;;;;;;;1.20;0.90;;;6.30;99.90;;;;;;5012406;28;20050;-87
2022/01/22 11:37:45;;;;;;;0.20;0.20;;;6.30;99.90;;;;;;5012760;28;20137;-88
2022/01/22 11:40:19;;;;;;;12.88;1.30;;;6.20;99.90;;;;;;5027864;28;20144;-88
2022/01/22 11:43:27;;;;;;;0.20;0.20;;;6.20;99.90;;;;;;5028044;28;20499;-87
2022/01/22 11:45:55;;;;;;;0.28;0.10;;;6.20;99.90;;;;;;4999254;28;20057;-88
2022/01/22 11:48:31;;;;;;;0.10;0.10;;;6.20;99.90;;;;;;5030256;28;20414;-87
2022/01/22 11:51:21;;;;;;;0.10;0.10;;;6.10;99.90;;;;;;5031648;28;20045;-87
2022/01/22 11:53:59;;;;;;;0.00;0.00;;;6.10;99.90;;;;;;5031737;28;20081;-87
2022/01/22 11:56:44;;;;;;;2.05;0.20;;;6.10;99.90;;;;;;5031573;28;20058;-88
2022/01/22 11:59:16;;;;;;;1.30;0.05;;;6.10;99.90;;;;;;5016317;28;20596;-88
2022/01/22 12:01:52;;;;;;;0.10;0.10;;;6.10;99.90;;;;;;5031526;28;20050;-88
2022/01/22 12:04:28;;;;;;;0.10;0.10;;;6.20;99.90;;;;;;5031703;28;20133;-88
2022/01/22 12:07:01;;;;;;;0.10;0.10;;;6.10;99.90;;;;;;5031635;28;20054;-88
2022/01/22 12:15:35;;;;;;;0.00;0.00;;;6.10;99.90;;;;;;5015900;28;20050;-88
2022/01/22 12:18:04;;;;;;;1.23;0.10;;;6.10;99.90;;;;;;5036645;28;20080;-88
2022/01/22 12:23:12;;;;;;;1.70;0.30;;;6.10;99.90;;;;;;5016050;28;20467;-88
2022/01/22 12:25:38;;;;;;;0.10;0.10;;;6.20;99.90;;;;;;5015698;28;20104;-88
2022/01/22 12:28:08;;;;;;;0.13;0.10;;;6.20;99.90;;;;;;5031097;28;20060;-88
2022/01/22 12:30:38;;;;;;;0.00;0.00;;;6.20;99.90;;;;;;5015538;28;20134;-87
2022/01/22 12:33:13;;;;;;;0.30;0.30;;;6.30;99.90;;;;;;5030960;28;20060;-87
2022/01/22 12:35:48;;;;;;;0.13;0.10;;;6.30;99.90;;;;;;5015570;28;20052;-88
2022/01/22 12:38:26;;;;;;;0.20;0.10;;;6.30;99.90;;;;;;5031052;28;20050;-88
2022/01/22 12:41:01;;;;;;;0.10;0.10;;;6.30;99.90;;;;;;5015434;28;20056;-88
2022/01/22 12:43:31;;;;;;;1.40;0.38;;;6.40;99.90;;;;;;5030890;28;20054;-88
2022/01/22 12:46:01;;;;;;;0.10;0.10;;;6.40;99.90;;;;;;5030393;28;20085;-90
2022/01/22 12:48:30;;;;;;;2.55;0.55;;;6.40;99.90;;;;;;5030720;28;20060;-87
2022/01/22 12:51:02;;;;;;;0.25;0.25;;;6.30;99.90;;;;;;5030964;28;20482;-88
2022/01/22 12:53:30;;;;;;;0.03;0.03;;;6.20;99.90;;;;;;5030509;28;20042;-88
2022/01/22 12:58:33;;;;;;;1.65;0.10;;;6.30;99.90;;;;;;5014658;28;20133;-87
2022/01/22 13:01:21;;;;;;;0.40;0.10;;;6.40;99.90;;;;;;5030589;28;20109;-87
2022/01/22 13:03:52;;;;;;;1.00;0.20;;;6.40;99.90;;;;;;5030153;28;20053;-88
2022/01/22 13:06:21;;;;;;;0.52;0.52;;;6.50;99.90;;;;;;5013956;28;20491;-87
2022/01/22 13:08:48;;;;;;;0.38;0.38;;;6.50;99.90;;;;;;5030207;28;20042;-88
2022/01/22 13:11:18;;;;;;;0.10;0.10;;;6.50;99.90;;;;;;5015018;28;20081;-88
2022/01/22 13:13:49;;;;;;;3.33;0.82;;;6.50;99.90;;;;;;5030143;28;20064;-87
2022/01/22 13:16:17;;;;;;;0.65;0.22;;;6.40;99.90;;;;;;5030159;28;20409;-87
2022/01/22 13:18:59;;;;;;;0.85;0.30;;;6.40;99.90;;;;;;5030067;28;20048;-88
2022/01/22 13:21:29;;;;;;;1.38;0.35;;;6.50;99.90;;;;;;5030158;28;20068;-88
2022/01/22 13:24:04;;;;;;;0.28;0.10;;;6.50;99.90;;;;;;5014709;28;20054;-87
2022/01/22 13:27:02;;;;;;;0.35;0.20;;;6.50;99.90;;;;;;5014715;28;20045;-88
2022/01/22 13:29:37;;;;;;;0.10;0.10;;;6.50;99.90;;;;;;5029900;28;20595;-88
2022/01/22 13:32:25;;;;;;;0.28;0.20;;;6.40;99.90;;;;;;5030062;28;20234;-88
2022/01/22 13:35:21;;;;;;;0.30;0.30;;;6.30;99.90;;;;;;5014242;28;20050;-87
2022/01/22 13:38:29;;;;;;;0.10;0.10;;;6.40;99.90;;;;;;5029946;28;20054;-88
2022/01/22 13:49:15;;;;;;;1.13;0.32;;;6.40;99.90;;;;;;5014354;28;20132;-88
2022/01/22 13:51:44;;;;;;;1.00;0.10;;;6.50;99.90;;;;;;5029645;28;20085;-88
2022/01/22 13:54:11;;;;;;;0.20;0.20;;;6.50;99.90;;;;;;5029885;28;20050;-88
2022/01/22 13:56:48;;;;;;;0.30;0.30;;;6.50;99.90;;;;;;5029432;28;20049;-88
2022/01/22 13:59:20;;;;;;;0.95;0.47;;;6.50;99.90;;;;;;5029838;28;20052;-88
2022/01/22 14:02:10;;;;;;;0.20;0.20;;;6.50;99.90;;;;;;5029667;28;20084;-88
2022/01/22 14:04:47;;;;;;;0.30;0.20;;;6.50;99.90;;;;;;5029395;28;20105;-87
2022/01/22 14:07:28;;;;;;;0.25;0.25;;;6.60;99.90;;;;;;5029093;28;20065;-88
2022/01/22 14:09:57;;;;;;;0.25;0.13;;;6.50;99.90;;;;;;5013602;28;20053;-88
2022/01/22 14:12:33;;;;;;;0.57;0.32;;;6.40;99.90;;;;;;5029511;28;20121;-88
2022/01/22 14:15:10;;;;;;;0.20;0.20;;;6.40;99.90;;;;;;5029246;28;20528;-88
2022/01/22 14:18:08;;;;;;;0.40;0.40;;;6.30;99.90;;;;;;5029231;28;20132;-88
2022/01/22 14:20:57;;;;;;;0.20;0.20;;;6.40;99.90;;;;;;5023582;28;20482;-87
2022/01/22 14:23:31;;;;;;;0.10;0.10;;;6.40;99.90;;;;;;5012923;28;20057;-88
2022/01/22 14:26:16;;;;;;;0.10;0.10;;;6.30;99.90;;;;;;5013716;28;20050;-88
2022/01/22 14:28:57;;;;;;;0.15;0.10;;;6.30;99.90;;;;;;5029415;28;20136;-90
2022/01/22 14:31:54;;;;;;;0.28;0.10;;;6.20;99.90;;;;;;5028906;28;20049;-88
2022/01/22 14:34:31;;;;;;;0.95;0.30;;;6.10;99.90;;;;;;5029079;28;20064;-88
2022/01/22 14:37:00;;;;;;;0.30;0.28;;;6.10;99.90;;;;;;5028690;28;20053;-88
2022/01/22 14:43:55;;;;;;;0.13;0.13;;;6.10;99.90;;;;;;5028950;28;20517;-88
2022/01/22 14:45:20;;;;;;;0.32;0.30;;;6.10;99.90;;;;;;5013652;28;20052;-88
2022/01/22 14:47:57;;;;;;;3.13;0.47;;;6.00;99.90;;;;;;5028637;28;20050;-88
2022/01/22 14:50:26;;;;;;;8.35;0.70;;;5.90;99.90;;;;;;5028200;28;20054;-88
2022/01/22 14:52:54;;;;;;;5.57;2.40;;;5.80;99.90;;;;;;5028681;28;20054;-87
2022/01/22 14:55:22;;;;;;;0.30;0.30;;;5.90;99.90;;;;;;5028465;28;20162;-88
2022/01/22 14:57:49;;;;;;;0.43;0.30;;;5.90;99.90;;;;;;5012780;28;20052;-89
2022/01/22 15:00:17;;;;;;;0.40;0.40;;;5.90;99.90;;;;;;5012782;28;20406;-88
2022/01/22 15:02:45;;;;;;;0.25;0.25;;;5.90;99.90;;;;;;5012672;28;20077;-91
2022/01/22 15:05:14;;;;;;;0.88;0.70;;;5.90;99.90;;;;;;5012719;28;20113;-87
2022/01/22 15:07:43;;;;;;;2.85;1.33;;;5.90;99.90;;;;;;5012120;28;20060;-89
2022/01/22 15:10:11;;;;;;;5.60;0.73;;;5.80;99.90;;;;;;5028194;28;20133;-88
2022/01/22 15:12:39;;;;;;;5.32;0.80;;;5.90;99.90;;;;;;5028478;28;20054;-88